createdAt,value
2019-01-18T06:35:52.396Z,3
2019-01-18T06:42:29.335Z,7
2019-01-18T06:45:32.303Z,10
2019-01-18T06:47:34.263Z,13
2019-01-18T06:49:05.429Z,17
2019-01-18T06:50:35.521Z,20
2019-01-18T06:51:35.512Z,23
2019-01-18T06:52:05.532Z,27
2019-01-18T06:53:05.602Z,30
2019-01-18T06:53:35.605Z,33
2019-01-18T06:54:35.661Z,37
2019-01-18T06:55:05.655Z,40
2019-01-18T06:55:35.632Z,43
2019-01-18T06:56:05.672Z,47
2019-01-18T06:56:35.876Z,53
2019-01-18T06:57:05.715Z,57
2019-01-18T06:57:35.759Z,60
2019-01-18T06:58:05.768Z,67
2019-01-18T06:58:35.808Z,70
2019-01-18T06:59:05.805Z,77
2019-01-18T06:59:35.834Z,83
2019-01-18T07:00:05.858Z,87
2019-01-18T07:00:35.849Z,93
2019-01-18T07:01:08.523Z,100
2019-01-18T07:01:36.856Z,107
2019-01-18T07:02:06.910Z,113
2019-01-18T07:02:37.913Z,123
2019-01-18T07:03:07.888Z,130
2019-01-18T07:03:38.903Z,140
2019-01-18T07:04:08.967Z,147
2019-01-18T07:04:40.860Z,157
2019-01-18T07:05:10.032Z,167
2019-01-18T07:05:40.000Z,177
2019-01-18T07:06:10.007Z,187
2019-01-18T07:06:41.050Z,197
2019-01-18T07:07:11.081Z,210
2019-01-18T07:07:42.122Z,217
2019-01-18T07:08:12.048Z,230
2019-01-18T07:08:42.292Z,243
2019-01-18T07:09:12.117Z,257
2019-01-18T07:09:42.152Z,267
2019-01-18T07:10:12.151Z,283
2019-01-18T07:10:42.205Z,297
2019-01-18T07:11:12.204Z,310
2019-01-18T07:11:43.237Z,327
2019-01-18T07:12:13.244Z,343
2019-01-18T07:12:43.279Z,360
2019-01-18T07:13:13.267Z,377
2019-01-18T07:13:43.349Z,393
2019-01-18T07:14:13.347Z,413
2019-01-18T07:14:43.425Z,427
2019-01-18T07:15:13.371Z,447
2019-01-18T07:15:44.401Z,467
2019-01-18T07:16:14.413Z,487
2019-01-18T07:16:44.435Z,507
2019-01-18T07:17:14.460Z,530
2019-01-18T07:17:45.460Z,550
2019-01-18T07:18:15.464Z,570
2019-01-18T07:18:46.527Z,593
2019-01-18T07:19:16.503Z,617
2019-01-18T07:19:47.528Z,640
2019-01-18T07:20:17.497Z,660
2019-01-18T07:20:48.541Z,683
2019-01-18T07:21:18.626Z,707
2019-01-18T07:21:49.546Z,733
2019-01-18T07:22:19.554Z,757
2019-01-18T07:22:49.667Z,783
2019-01-18T07:23:19.652Z,807
2019-01-18T07:23:50.705Z,833
2019-01-18T07:24:20.674Z,857
2019-01-18T07:24:51.738Z,883
2019-01-18T07:25:21.761Z,910
2019-01-18T07:25:52.740Z,940
2019-01-18T07:26:22.766Z,967
2019-01-18T07:26:53.849Z,997
2019-01-18T07:27:23.803Z,1023
2019-01-18T07:27:54.834Z,1053
2019-01-18T07:28:24.871Z,1077
2019-01-18T07:28:55.854Z,1107
2019-01-18T07:29:25.819Z,1133
2019-01-18T07:29:56.873Z,1163
2019-01-18T07:30:26.889Z,1193
2019-01-18T07:30:57.914Z,1227
2019-01-18T07:31:27.883Z,1253
2019-01-18T07:31:58.680Z,1280
2019-01-18T07:32:28.007Z,1310
2019-01-18T07:32:58.968Z,1343
2019-01-18T07:33:29.007Z,1377
2019-01-18T07:33:59.117Z,1407
2019-01-18T07:34:29.028Z,1440
2019-01-18T07:35:00.081Z,1467
2019-01-18T07:35:30.081Z,1493
2019-01-18T07:36:00.110Z,1523
2019-01-18T07:36:30.127Z,1603
2019-01-18T07:37:01.166Z,1777
2019-01-18T07:37:31.180Z,1983
2019-01-18T07:38:01.171Z,2143
2019-01-18T07:38:31.222Z,2227
2019-01-18T07:39:01.309Z,2233
2019-01-18T07:39:31.266Z,2240
2019-01-18T07:40:02.216Z,2217
2019-01-18T07:40:32.253Z,2170
2019-01-18T07:41:03.315Z,2120
2019-01-18T07:41:36.199Z,2063
2019-01-18T07:42:05.341Z,2010
2019-01-18T07:42:36.334Z,1970
2019-01-18T07:43:06.417Z,1957
2019-01-18T07:43:37.411Z,1983
2019-01-18T07:44:07.444Z,2010
2019-01-18T07:44:38.428Z,2043
2019-01-18T07:45:08.429Z,2067
2019-01-18T07:45:39.415Z,2097
2019-01-18T07:46:09.431Z,2123
2019-01-18T07:46:40.399Z,2147
2019-01-18T07:47:10.408Z,2177
2019-01-18T07:47:41.427Z,2203
2019-01-18T07:48:11.395Z,2227
2019-01-18T07:48:42.366Z,2257
2019-01-18T07:49:12.475Z,2283
2019-01-18T07:49:43.413Z,2313
2019-01-18T07:50:19.721Z,2340
2019-01-18T07:50:44.389Z,2367
2019-01-18T07:51:14.353Z,2397
2019-01-18T07:51:45.367Z,2423
2019-01-18T07:52:15.366Z,2453
2019-01-18T07:52:46.329Z,2480
2019-01-18T07:53:16.362Z,2507
2019-01-18T07:53:46.502Z,2537
2019-01-18T07:54:15.500Z,2563
2019-01-18T07:54:46.560Z,2593
2019-01-18T07:55:15.628Z,2617
2019-01-18T07:55:46.732Z,2643
2019-01-18T07:56:16.686Z,2667
2019-01-18T07:56:47.672Z,2690
2019-01-18T07:57:17.688Z,2713
2019-01-18T07:57:48.720Z,2740
2019-01-18T07:58:18.685Z,2767
2019-01-18T07:58:49.683Z,2790
2019-01-18T07:59:19.718Z,2813
2019-01-18T07:59:49.714Z,2840
2019-01-18T08:00:19.778Z,2867
2019-01-18T08:00:50.761Z,2890
2019-01-18T08:01:22.118Z,2917
2019-01-18T08:01:51.809Z,2940
2019-01-18T08:02:21.857Z,2967
2019-01-18T08:02:51.851Z,2987
2019-01-18T08:03:21.880Z,3010
2019-01-18T08:03:52.858Z,3033
2019-01-18T08:04:22.902Z,3060
2019-01-18T08:04:53.886Z,3083
2019-01-18T08:05:23.895Z,3107
2019-01-18T08:05:54.935Z,3137
2019-01-18T08:06:24.946Z,3163
2019-01-18T08:06:55.920Z,3197
2019-01-18T08:07:25.945Z,3217
2019-01-18T08:07:56.982Z,3243
2019-01-18T08:08:27.025Z,3267
2019-01-18T08:08:58.017Z,3293
2019-01-18T08:09:28.033Z,3363
2019-01-18T08:09:59.023Z,3613
2019-01-18T08:10:29.023Z,4073
2019-01-18T08:11:00.103Z,4607
2019-01-18T08:11:30.086Z,5070
2019-01-18T08:12:01.058Z,5607
2019-01-18T08:12:31.084Z,6180
2019-01-18T08:13:02.098Z,6830
2019-01-18T08:13:32.101Z,7340
2019-01-18T08:14:03.208Z,7610
2019-01-18T08:14:33.227Z,7533
2019-01-18T08:15:04.194Z,7440
2019-01-18T08:15:34.202Z,7253
2019-01-18T08:16:05.220Z,7047
2019-01-18T08:16:35.228Z,6847
2019-01-18T08:17:06.297Z,6950
2019-01-18T08:17:36.261Z,6867
2019-01-18T08:18:07.271Z,7197
2019-01-18T08:18:37.250Z,7567
2019-01-18T08:19:08.309Z,7603
2019-01-18T08:19:38.310Z,7777
2019-01-18T08:20:09.325Z,7897
2019-01-18T08:20:39.342Z,8140
2019-01-18T08:21:10.360Z,8287
2019-01-18T08:21:40.365Z,8503
2019-01-18T08:22:10.449Z,8557
2019-01-18T08:22:40.404Z,8750
2019-01-18T08:23:11.451Z,8657
2019-01-18T08:23:41.455Z,8697
2019-01-18T08:24:12.453Z,8853
2019-01-18T08:24:42.472Z,8957
2019-01-18T08:25:13.483Z,9170
2019-01-18T08:25:46.449Z,9163
2019-01-18T08:26:15.571Z,9190
2019-01-18T08:26:46.559Z,9257
2019-01-18T08:27:16.719Z,9307
2019-01-18T08:27:47.662Z,9463
2019-01-18T08:28:17.642Z,9677
2019-01-18T08:28:48.674Z,9473
2019-01-18T08:29:18.594Z,9367
2019-01-18T08:29:49.612Z,9350
2019-01-18T08:30:19.624Z,9347
2019-01-18T08:30:50.597Z,8983
2019-01-18T08:31:20.589Z,8707
2019-01-18T08:31:51.609Z,8673
2019-01-18T08:32:21.624Z,8897
2019-01-18T08:32:52.654Z,9597
2019-01-18T08:33:22.650Z,10047
2019-01-18T08:33:53.563Z,10027
2019-01-18T08:34:23.593Z,10083
2019-01-18T08:34:54.585Z,10170
2019-01-18T08:35:24.553Z,10280
2019-01-18T08:35:55.581Z,9950
2019-01-18T08:36:25.539Z,9800
2019-01-18T08:36:56.562Z,9737
2019-01-18T08:37:26.578Z,9843
2019-01-18T08:37:57.556Z,10147
2019-01-18T08:38:27.517Z,10363
2019-01-18T08:38:58.560Z,9313
2019-01-18T08:39:28.544Z,8650
2019-01-18T08:39:59.535Z,8510
2019-01-18T08:40:29.551Z,8820
2019-01-18T08:41:01.567Z,9530
2019-01-18T08:41:30.517Z,9743
2019-01-18T08:42:01.494Z,10113
2019-01-18T08:42:31.494Z,10643
2019-01-18T08:43:02.511Z,11000
2019-01-18T08:43:32.492Z,11277
2019-01-18T08:44:03.502Z,11263
2019-01-18T08:44:33.448Z,11323
2019-01-18T08:45:04.499Z,11367
2019-01-18T08:45:34.453Z,11383
2019-01-18T08:46:05.478Z,11423
2019-01-18T08:46:35.458Z,11147
2019-01-18T08:47:06.462Z,10997
2019-01-18T08:47:36.508Z,10887
2019-01-18T08:48:07.465Z,10897
2019-01-18T08:48:37.439Z,10970
2019-01-18T08:49:08.465Z,11207
2019-01-18T08:49:38.427Z,11350
2019-01-18T08:50:09.453Z,11880
2019-01-18T08:50:39.490Z,12010
2019-01-18T08:51:10.409Z,12090
2019-01-18T08:51:40.443Z,12170
2019-01-18T08:52:11.436Z,12240
2019-01-18T08:52:41.413Z,12290
2019-01-18T08:53:12.420Z,12323
2019-01-18T08:53:42.445Z,12357
2019-01-18T08:54:13.409Z,12227
2019-01-18T08:54:43.428Z,12023
2019-01-18T08:55:14.441Z,11710
2019-01-18T08:55:44.420Z,11667
2019-01-18T08:56:16.705Z,11370
2019-01-18T08:56:45.399Z,10763
2019-01-18T08:57:16.423Z,9997
2019-01-18T08:57:46.414Z,9780
2019-01-18T08:58:17.386Z,10027
2019-01-18T08:58:47.343Z,10883
2019-01-18T08:59:18.359Z,11587
2019-01-18T08:59:48.363Z,11147
2019-01-18T09:00:19.373Z,10350
2019-01-18T09:00:49.358Z,9697
2019-01-18T09:01:20.323Z,9450
2019-01-18T09:01:50.315Z,9667
2019-01-18T09:02:21.826Z,10577
2019-01-18T09:02:51.373Z,11253
2019-01-18T09:03:22.346Z,12070
2019-01-18T09:03:51.432Z,12853
2019-01-18T09:04:22.462Z,13173
2019-01-18T09:04:52.572Z,13297
2019-01-18T09:05:23.987Z,13267
2019-01-18T09:05:53.491Z,12733
2019-01-18T09:06:24.573Z,12443
2019-01-18T09:06:54.522Z,12543
2019-01-18T09:07:25.570Z,13013
2019-01-18T09:07:55.561Z,13523
2019-01-18T09:08:26.535Z,12973
2019-01-18T09:08:56.605Z,11883
2019-01-18T09:09:27.699Z,11377
2019-01-18T09:09:57.606Z,10900
2019-01-18T09:10:28.660Z,11330
2019-01-18T09:10:58.632Z,12403
2019-01-18T09:11:29.658Z,13407
2019-01-18T09:11:59.720Z,13890
2019-01-18T09:12:30.689Z,13987
2019-01-18T09:13:01.813Z,13847
2019-01-18T09:13:31.718Z,13663
2019-01-18T09:14:01.693Z,13353
2019-01-18T09:14:32.709Z,12240
2019-01-18T09:15:02.770Z,11113
2019-01-18T09:15:33.798Z,10393
2019-01-18T09:16:03.806Z,9920
2019-01-18T09:16:34.809Z,9310
2019-01-18T09:17:04.789Z,8240
2019-01-18T09:17:35.837Z,7850
2019-01-18T09:18:06.004Z,7487
2019-01-18T09:18:36.870Z,7283
2019-01-18T09:19:06.898Z,7460
2019-01-18T09:19:37.875Z,8323
2019-01-18T09:20:07.892Z,9573
2019-01-18T09:20:37.895Z,10783
2019-01-18T09:21:07.910Z,12067
2019-01-18T09:21:38.985Z,13723
2019-01-18T09:22:09.048Z,14557
2019-01-18T09:22:39.945Z,14713
2019-01-18T09:23:09.979Z,14810
2019-01-18T09:23:41.050Z,13640
2019-01-18T09:24:11.035Z,13020
2019-01-18T09:24:42.595Z,12310
2019-01-18T09:25:12.081Z,11133
2019-01-18T09:25:43.079Z,10617
2019-01-18T09:26:13.133Z,10290
2019-01-18T09:26:44.080Z,11793
2019-01-18T09:27:14.138Z,12360
2019-01-18T09:27:44.115Z,13470
2019-01-18T09:28:14.158Z,14387
2019-01-18T09:28:45.193Z,13863
2019-01-18T09:29:15.219Z,13447
2019-01-18T09:29:46.235Z,13173
2019-01-18T09:30:16.212Z,11640
2019-01-18T09:30:47.233Z,11350
2019-01-18T09:31:17.244Z,11613
2019-01-18T09:31:48.259Z,11850
2019-01-18T09:32:18.326Z,10677
2019-01-18T09:32:48.339Z,10837
2019-01-18T09:33:18.355Z,10347
2019-01-18T09:33:49.398Z,11557
2019-01-18T09:34:22.325Z,13453
2019-01-18T09:34:51.435Z,14457
2019-01-18T09:35:22.411Z,15203
2019-01-18T09:35:52.520Z,14237
2019-01-18T09:36:23.505Z,12800
2019-01-18T09:36:53.490Z,11580
2019-01-18T09:37:24.503Z,10677
2019-01-18T09:37:54.486Z,11123
2019-01-18T09:38:25.506Z,13093
2019-01-18T09:38:55.509Z,13267
2019-01-18T09:39:26.489Z,15110
2019-01-18T09:39:56.526Z,15047
2019-01-18T09:40:27.494Z,14427
2019-01-18T09:40:57.487Z,12790
2019-01-18T09:41:28.471Z,11823
2019-01-18T09:41:58.476Z,11690
2019-01-18T09:42:29.478Z,12390
2019-01-18T09:42:59.466Z,12780
2019-01-18T09:43:30.468Z,12360
2019-01-18T09:44:00.993Z,12177
2019-01-18T09:44:31.431Z,11943
2019-01-18T09:45:01.434Z,13057
2019-01-18T09:45:32.454Z,13823
2019-01-18T09:46:02.405Z,14467
2019-01-18T09:46:33.440Z,15247
2019-01-18T09:47:03.421Z,15573
2019-01-18T09:47:34.429Z,14590
2019-01-18T09:48:04.392Z,12333
2019-01-18T09:48:35.650Z,11947
2019-01-18T09:49:05.366Z,12047
2019-01-18T09:49:36.408Z,12507
2019-01-18T09:50:06.453Z,14273
2019-01-18T09:50:37.409Z,14230
2019-01-18T09:51:07.382Z,15637
2019-01-18T09:51:38.398Z,14383
2019-01-18T09:52:08.395Z,13577
2019-01-18T09:52:39.390Z,14013
2019-01-18T09:53:09.382Z,14247
2019-01-18T09:53:40.353Z,14117
2019-01-18T09:54:10.354Z,14857
2019-01-18T09:54:41.374Z,15743
2019-01-18T09:55:11.366Z,15367
2019-01-18T09:55:42.491Z,15423
2019-01-18T09:56:12.312Z,14577
2019-01-18T09:56:43.335Z,13787
2019-01-18T09:57:13.345Z,13107
2019-01-18T09:57:44.360Z,13243
2019-01-18T09:58:14.310Z,14643
2019-01-18T09:58:45.367Z,14920
2019-01-18T09:59:15.273Z,15800
2019-01-18T09:59:46.305Z,17623
2019-01-18T10:00:16.312Z,18073
2019-01-18T10:00:47.354Z,17973
2019-01-18T10:01:16.395Z,18050
2019-01-18T10:01:49.340Z,16767
2019-01-18T10:02:17.426Z,15303
2019-01-18T10:02:48.404Z,15907
2019-01-18T10:03:18.422Z,15173
2019-01-18T10:03:48.525Z,16033
2019-01-18T10:04:18.538Z,16110
2019-01-18T10:04:49.468Z,16967
2019-01-18T10:05:19.488Z,17977
2019-01-18T10:05:50.541Z,18090
2019-01-18T10:06:20.518Z,17790
2019-01-18T10:06:51.535Z,16020
2019-01-18T10:07:21.629Z,15103
2019-01-18T10:07:52.578Z,13737
2019-01-18T10:08:22.588Z,13497
2019-01-18T10:08:53.602Z,13853
2019-01-18T10:09:23.665Z,13783
2019-01-18T10:09:54.687Z,12710
2019-01-18T10:10:24.692Z,11993
2019-01-18T10:10:55.650Z,13043
2019-01-18T10:11:25.695Z,14267
2019-01-18T10:11:56.695Z,16210
2019-01-18T10:12:26.726Z,16907
2019-01-18T10:12:57.761Z,18127
2019-01-18T10:13:27.758Z,18467
2019-01-18T10:13:57.802Z,18540
2019-01-18T10:14:27.835Z,18683
2019-01-18T10:14:58.773Z,18677
2019-01-18T10:15:28.781Z,18693
2019-01-18T10:15:59.853Z,18713
2019-01-18T10:16:29.848Z,18763
2019-01-18T10:17:00.829Z,18773
2019-01-18T10:17:30.884Z,18733
2019-01-18T10:18:01.892Z,18757
2019-01-18T10:18:31.910Z,18670
2019-01-18T10:19:01.953Z,18773
2019-01-18T10:19:31.947Z,18713
2019-01-18T10:20:02.018Z,18860
2019-01-18T10:20:32.026Z,18850
2019-01-18T10:21:02.072Z,18893
2019-01-18T10:21:32.079Z,18960
2019-01-18T10:22:02.103Z,18977
2019-01-18T10:22:32.122Z,19047
2019-01-18T10:23:02.206Z,19083
2019-01-18T10:23:32.211Z,19067
2019-01-18T10:24:02.282Z,19127
2019-01-18T10:24:32.280Z,19150
2019-01-18T10:25:02.492Z,19137
2019-01-18T10:25:32.301Z,19070
2019-01-18T10:26:02.428Z,19157
2019-01-18T10:26:32.420Z,19143
2019-01-18T10:27:02.782Z,19220
2019-01-18T10:27:32.461Z,19280
2019-01-18T10:28:02.501Z,19310
2019-01-18T10:28:32.487Z,19277
2019-01-18T10:29:02.570Z,19290
2019-01-18T10:29:32.593Z,19253
2019-01-18T10:30:02.625Z,19243
2019-01-18T10:30:32.667Z,19280
2019-01-18T10:31:02.645Z,19297
2019-01-18T10:31:32.732Z,19327
2019-01-18T10:32:02.750Z,19373
2019-01-18T10:32:32.824Z,19447
2019-01-18T10:33:02.781Z,19520
2019-01-18T10:33:32.830Z,19543
2019-01-18T10:34:02.900Z,19397
2019-01-18T10:34:32.900Z,19150
2019-01-18T10:35:02.972Z,18773
2019-01-18T10:35:32.939Z,18893
2019-01-18T10:36:03.004Z,19133
2019-01-18T10:36:33.026Z,18920
2019-01-18T10:37:03.102Z,19083
2019-01-18T10:37:33.106Z,19330
2019-01-18T10:38:03.103Z,19907
2019-01-18T10:38:33.101Z,20410
2019-01-18T10:39:03.222Z,20550
2019-01-18T10:39:33.158Z,20593
2019-01-18T10:40:03.246Z,20613
2019-01-18T10:40:33.248Z,20650
2019-01-18T10:41:03.261Z,20657
2019-01-18T10:41:33.326Z,20603
2019-01-18T10:42:03.367Z,20653
2019-01-18T10:42:33.431Z,20673
2019-01-18T10:43:03.415Z,20707
2019-01-18T10:43:33.442Z,20030
2019-01-18T10:44:05.993Z,17533
2019-01-18T10:44:33.517Z,13697
2019-01-18T10:45:03.592Z,9847
2019-01-18T10:45:33.550Z,7223
2019-01-18T10:46:03.568Z,6340
2019-01-18T10:46:33.639Z,6330
2019-01-18T10:47:03.699Z,6317
2019-01-18T10:47:33.714Z,6330
2019-01-18T10:48:03.888Z,6333
2019-01-18T10:48:33.754Z,6320
2019-01-18T10:49:03.851Z,6300
2019-01-18T10:49:33.827Z,6283
2019-01-18T10:50:03.858Z,6273
2019-01-18T10:50:33.890Z,6263
2019-01-18T10:51:03.878Z,6250
2019-01-18T10:51:33.938Z,6240
2019-01-18T10:52:04.007Z,6227
2019-01-18T10:52:34.025Z,6207
2019-01-18T10:53:04.064Z,6197
2019-01-18T10:53:34.073Z,6183
2019-01-18T10:54:04.185Z,6163
2019-01-18T10:54:34.132Z,6153
2019-01-18T10:55:04.184Z,6150
2019-01-18T10:55:34.222Z,6140
2019-01-18T10:56:04.196Z,6137
2019-01-18T10:56:34.244Z,6133
2019-01-18T10:57:04.330Z,6137
2019-01-18T10:57:34.290Z,6140
2019-01-18T10:59:04.460Z,6143
2019-01-18T11:00:34.569Z,6147
2019-01-18T11:01:04.641Z,6143
2019-01-18T11:02:07.142Z,6140
2019-01-18T11:03:04.813Z,6133
2019-01-18T11:03:34.703Z,6117
2019-01-18T11:04:04.698Z,6110
2019-01-18T11:04:34.726Z,6100
2019-01-18T11:05:34.753Z,6093
2019-01-18T11:06:34.826Z,6097
2019-01-18T11:07:35.320Z,6100
2019-01-18T11:08:34.942Z,6097
2019-01-18T11:09:06.569Z,6100
2019-01-18T11:09:35.006Z,6097
2019-01-18T11:10:05.108Z,6093
2019-01-18T11:10:35.083Z,6090
2019-01-18T11:11:05.129Z,6077
2019-01-18T11:13:05.296Z,6070
2019-01-18T11:14:35.608Z,6077
2019-01-18T11:15:05.402Z,6080
2019-01-18T11:15:36.160Z,6073
2019-01-18T11:16:05.510Z,6067
2019-01-18T11:16:35.473Z,6070
2019-01-18T11:17:05.524Z,6067
2019-01-18T11:17:35.524Z,6070
2019-01-18T11:18:05.538Z,6067
2019-01-18T11:19:05.658Z,6060
2019-01-18T11:20:05.732Z,6063
2019-01-18T11:20:35.734Z,6067
2019-01-18T11:21:05.778Z,6073
2019-01-18T11:21:35.770Z,6080
2019-01-18T11:22:05.841Z,6077
2019-01-18T11:22:35.845Z,6080
2019-01-18T11:23:05.913Z,6087
2019-01-18T11:24:05.962Z,6090
2019-01-18T11:24:35.980Z,6097
2019-01-18T11:25:06.047Z,6093
2019-01-18T11:26:06.085Z,6107
2019-01-18T11:26:36.100Z,6113
2019-01-18T11:27:36.170Z,6123
2019-01-18T11:28:06.212Z,6133
2019-01-18T11:28:36.261Z,6140
2019-01-18T11:29:06.295Z,6143
2019-01-18T11:29:36.290Z,6147
2019-01-18T11:30:06.404Z,6157
2019-01-18T11:30:36.371Z,6167
2019-01-18T11:31:06.390Z,6180
2019-01-18T11:31:36.501Z,6190
2019-01-18T11:32:06.448Z,6197
2019-01-18T11:33:06.507Z,6207
2019-01-18T11:34:06.610Z,6210
2019-01-18T11:34:36.686Z,6223
2019-01-18T11:35:06.738Z,6240
2019-01-18T11:35:36.692Z,6247
2019-01-18T11:36:06.639Z,6257
2019-01-18T11:36:36.704Z,6260
2019-01-18T11:37:07.675Z,6227
2019-01-18T11:37:37.730Z,6197
2019-01-18T11:38:08.745Z,6140
2019-01-18T11:38:38.753Z,6233
2019-01-18T11:39:08.835Z,6267
2019-01-18T11:39:38.801Z,6283
2019-01-18T11:40:09.857Z,6303
2019-01-18T11:40:39.791Z,6323
2019-01-18T11:41:10.862Z,6330
2019-01-18T11:41:40.912Z,6277
2019-01-18T11:42:12.734Z,6203
2019-01-18T11:42:41.881Z,6170
2019-01-18T11:43:12.925Z,6187
2019-01-18T11:43:42.922Z,6227
2019-01-18T11:44:13.927Z,6250
2019-01-18T11:44:43.924Z,6273
2019-01-18T11:45:15.238Z,6270
2019-01-18T11:45:45.012Z,6253
2019-01-18T11:46:15.979Z,6247
2019-01-18T11:48:18.020Z,6243
2019-01-18T11:49:19.109Z,6250
2019-01-18T11:49:50.932Z,6253
2019-01-18T11:50:20.215Z,6257
2019-01-18T11:50:51.063Z,6263
2019-01-18T11:51:20.245Z,6280
2019-01-18T11:51:51.137Z,6290
2019-01-18T11:52:20.884Z,6287
2019-01-18T11:52:51.204Z,6283
2019-01-18T11:53:20.366Z,6290
2019-01-18T11:53:51.275Z,6293
2019-01-18T11:54:20.436Z,6303
2019-01-18T11:54:51.340Z,6313
2019-01-18T11:55:20.659Z,6317
2019-01-18T11:55:51.410Z,6320
2019-01-18T11:56:20.603Z,6323
2019-01-18T11:56:51.484Z,6317
2019-01-18T11:57:20.672Z,6287
2019-01-18T11:57:51.557Z,6267
2019-01-18T11:58:20.784Z,6253
2019-01-18T11:58:51.649Z,6267
2019-01-18T11:59:20.850Z,6260
2019-01-18T11:59:51.713Z,6253
2019-01-18T12:00:20.940Z,6233
2019-01-18T12:00:51.783Z,6210
2019-01-18T12:01:20.972Z,6197
2019-01-18T12:01:51.847Z,6187
2019-01-18T12:02:51.913Z,6180
2019-01-18T12:03:51.978Z,6177
2019-01-18T12:04:21.220Z,6173
2019-01-18T12:04:52.041Z,6187
2019-01-18T12:05:21.451Z,6183
2019-01-18T12:05:52.084Z,6170
2019-01-18T12:06:21.310Z,6160
2019-01-18T12:06:52.195Z,6170
2019-01-18T12:07:52.311Z,6173
2019-01-18T12:08:21.471Z,6167
2019-01-18T12:09:21.554Z,6157
2019-01-18T12:09:52.430Z,6143
2019-01-18T12:10:21.876Z,6133
2019-01-18T12:10:52.497Z,6120
2019-01-18T12:11:21.691Z,6103
2019-01-18T12:11:52.568Z,6090
2019-01-18T12:12:21.727Z,6080
2019-01-18T12:13:52.677Z,6090
2019-01-18T12:14:21.863Z,6100
2019-01-18T12:14:52.756Z,6113
2019-01-18T12:15:21.983Z,6117
2019-01-18T12:15:52.858Z,6127
2019-01-18T12:16:22.014Z,6140
2019-01-18T12:16:52.952Z,6163
2019-01-18T12:17:22.144Z,6177
2019-01-18T12:17:52.956Z,6197
2019-01-18T12:18:22.158Z,6217
2019-01-18T12:18:53.047Z,6240
2019-01-18T12:19:22.307Z,6263
2019-01-18T12:19:53.105Z,6293
2019-01-18T12:20:22.396Z,6323
2019-01-18T12:20:53.172Z,6347
2019-01-18T12:21:53.243Z,6323
2019-01-18T12:22:22.459Z,6297
2019-01-18T12:22:53.322Z,6277
2019-01-18T12:23:22.584Z,6263
2019-01-18T12:23:53.470Z,6247
2019-01-18T12:24:22.615Z,6233
2019-01-18T12:24:53.512Z,6213
2019-01-18T12:25:22.748Z,6207
2019-01-18T12:25:53.600Z,6197
2019-01-18T12:26:22.789Z,6193
2019-01-18T12:26:53.693Z,6197
2019-01-18T12:27:22.817Z,6203
2019-01-18T12:27:53.720Z,6220
2019-01-18T12:28:23.077Z,6233
2019-01-18T12:28:53.949Z,6243
2019-01-18T12:29:23.174Z,6250
2019-01-18T12:29:54.048Z,6240
2019-01-18T12:30:23.292Z,6230
2019-01-18T12:30:54.124Z,6233
2019-01-18T12:31:23.306Z,6250
2019-01-18T12:31:54.212Z,6270
2019-01-18T12:32:28.700Z,6287
2019-01-18T12:32:54.275Z,6297
2019-01-18T12:33:23.501Z,6307
2019-01-18T12:33:54.354Z,6317
2019-01-18T12:34:23.581Z,6337
2019-01-18T12:34:54.429Z,6397
2019-01-18T12:35:23.694Z,6510
2019-01-18T12:35:54.499Z,6663
2019-01-18T12:36:23.684Z,6813
2019-01-18T12:36:58.790Z,6900
2019-01-18T12:37:23.750Z,6887
2019-01-18T12:37:54.662Z,6830
2019-01-18T12:38:23.823Z,6723
2019-01-18T12:38:54.681Z,6613
2019-01-18T12:39:23.905Z,6527
2019-01-18T12:39:54.752Z,6453
2019-01-18T12:40:24.299Z,6407
2019-01-18T12:40:54.852Z,6383
2019-01-18T12:41:24.092Z,6360
2019-01-18T12:41:54.925Z,6337
2019-01-18T12:42:24.133Z,6320
2019-01-18T12:42:55.005Z,6273
2019-01-18T12:43:24.205Z,6220
2019-01-18T12:43:55.106Z,6177
2019-01-18T12:44:24.273Z,6140
2019-01-18T12:44:55.197Z,6110
2019-01-18T12:45:24.383Z,6087
2019-01-18T12:45:55.220Z,6067
2019-01-18T12:46:24.399Z,6050
2019-01-18T12:46:55.314Z,6043
2019-01-18T12:47:24.472Z,6053
2019-01-18T12:47:55.328Z,6067
2019-01-18T12:48:24.588Z,6073
2019-01-18T12:48:55.438Z,6070
2019-01-18T12:49:24.740Z,6060
2019-01-18T12:49:55.533Z,6043
2019-01-18T12:50:24.784Z,6020
2019-01-18T12:50:55.593Z,6010
2019-01-18T12:51:24.795Z,6020
2019-01-18T12:51:55.646Z,6030
2019-01-18T12:52:55.722Z,6013
2019-01-18T12:53:24.952Z,5993
2019-01-18T12:53:55.788Z,5973
2019-01-18T12:54:25.046Z,5953
2019-01-18T12:54:56.081Z,5933
2019-01-18T12:55:25.187Z,5910
2019-01-18T12:55:55.922Z,5893
2019-01-18T12:56:25.168Z,5887
2019-01-18T12:56:55.996Z,5883
2019-01-18T12:57:25.174Z,5880
2019-01-18T12:57:56.060Z,5873
2019-01-18T12:58:25.301Z,5867
2019-01-18T12:58:56.661Z,5847
2019-01-18T12:59:25.361Z,5837
2019-01-18T13:00:56.432Z,5830
2019-01-18T13:01:25.660Z,5823
2019-01-18T13:01:56.550Z,5820
2019-01-18T13:02:25.724Z,5797
2019-01-18T13:02:57.379Z,5800
2019-01-18T13:03:25.799Z,5780
2019-01-18T13:03:56.699Z,5793
2019-01-18T13:04:56.794Z,5780
2019-01-18T13:05:25.929Z,5763
2019-01-18T13:05:56.869Z,5740
2019-01-18T13:06:26.018Z,5720
2019-01-18T13:06:56.920Z,5713
2019-01-18T13:07:26.117Z,5703
2019-01-18T13:07:56.975Z,5693
2019-01-18T13:08:26.179Z,5683
2019-01-18T13:09:26.251Z,5687
2019-01-18T13:09:57.133Z,5697
2019-01-18T13:10:26.330Z,5707
2019-01-18T13:11:26.543Z,5697
2019-01-18T13:11:57.286Z,5683
2019-01-18T13:12:26.432Z,5680
2019-01-18T13:13:57.382Z,5683
2019-01-18T13:14:26.588Z,5687
2019-01-18T13:14:57.481Z,5697
2019-01-18T13:15:57.556Z,5680
2019-01-18T13:16:26.848Z,5667
2019-01-18T13:16:57.650Z,5660
2019-01-18T13:17:26.841Z,5657
2019-01-18T13:17:57.729Z,5647
2019-01-18T13:18:26.925Z,5623
2019-01-18T13:18:57.778Z,5610
2019-01-18T13:19:26.977Z,5600
2019-01-18T13:19:57.875Z,5590
2019-01-18T13:20:27.046Z,5570
2019-01-18T13:20:57.956Z,5560
2019-01-18T13:21:58.016Z,5547
2019-01-18T13:22:27.167Z,5523
2019-01-18T13:22:58.075Z,5530
2019-01-18T13:23:58.128Z,5520
2019-01-18T13:24:27.386Z,5513
2019-01-18T13:24:58.203Z,5507
2019-01-18T13:25:27.413Z,5490
2019-01-18T13:25:58.275Z,5483
2019-01-18T13:26:27.510Z,5470
2019-01-18T13:26:59.843Z,5447
2019-01-18T13:27:27.503Z,5443
2019-01-18T13:27:59.807Z,5437
2019-01-18T13:28:27.583Z,5450
2019-01-18T13:28:58.472Z,5460
2019-01-18T13:29:27.662Z,5457
2019-01-18T13:29:58.526Z,5460
2019-01-18T13:31:27.797Z,5457
2019-01-18T13:31:58.727Z,5450
2019-01-18T13:32:27.874Z,5440
2019-01-18T13:32:58.719Z,5433
2019-01-18T13:33:27.923Z,5417
2019-01-18T13:34:02.982Z,5397
2019-01-18T13:34:28.006Z,5367
2019-01-18T13:34:58.880Z,5330
2019-01-18T13:35:28.036Z,5290
2019-01-18T13:35:58.929Z,5280
2019-01-18T13:36:59.099Z,5277
2019-01-18T13:37:28.260Z,5270
2019-01-18T13:37:59.061Z,5263
2019-01-18T13:38:28.314Z,5253
2019-01-18T13:38:59.200Z,5227
2019-01-18T13:39:28.322Z,5213
2019-01-18T13:39:59.228Z,5190
2019-01-18T13:40:28.438Z,5177
2019-01-18T13:40:59.306Z,5167
2019-01-18T13:41:28.513Z,5187
2019-01-18T13:41:59.975Z,5207
2019-01-18T13:42:59.445Z,5220
2019-01-18T13:43:59.520Z,5213
2019-01-18T13:44:28.689Z,5200
2019-01-18T13:45:28.784Z,5210
2019-01-18T13:46:28.945Z,5197
2019-01-18T13:46:59.990Z,5180
2019-01-18T13:47:28.885Z,5167
2019-01-18T13:47:59.807Z,5157
2019-01-18T13:48:28.956Z,5153
2019-01-18T13:49:29.153Z,5140
2019-01-18T13:49:59.984Z,5067
2019-01-18T13:50:29.088Z,4997
2019-01-18T13:51:00.001Z,4970
2019-01-18T13:51:29.227Z,4973
2019-01-18T13:52:00.174Z,4970
2019-01-18T13:52:29.279Z,4960
2019-01-18T13:53:00.674Z,5010
2019-01-18T13:53:29.328Z,5067
2019-01-18T13:54:01.079Z,5110
2019-01-18T13:54:29.435Z,5107
2019-01-18T13:55:00.893Z,5097
2019-01-18T13:55:29.531Z,5077